Toyofujimaru No.2 — 7JDI — position and weather

sailwx.info

Track history (hours):
 
Tides and Currents Weather Stations Pressure Air Temp Water Temp Dewpoint Dewpoint Depression Visibility Wind Speed Wind Dir Waves Ship Positions

Toyofujimaru No.2

Last reported at 2014-Aug-22 17:33 UTC. Time now 2014-Aug-23 09:28 UTC.
Position N 36°03' E 141°01'.

Length 165 m; draft 6.5 m.

Type: Cargo ship. MMSI: 432667000.

Date/timePositionNaut miles runAvg speedWind from/ knotsBaromVisibWave heightAir tempDewpointWater temp
2014-Aug-22 17:33N 36°03' E 141°01'2120.1
2014-Aug-22 16:31N 35°42' E 140°58'2020.3
2014-Aug-22 15:33N 35°26' E 140°44'2120.5
2014-Aug-22 14:33N 35°10' E 140°29'2121.6
2014-Aug-22 13:33N 34°57' E 140°08'2019.9
2014-Aug-22 12:33N 34°52' E 139°45'1918.6
2014-Aug-22 11:34N 35°10' E 139°45'1211.7
2014-Aug-22 10:34N 35°22' E 139°42'9 9.0
2014-Aug-22 09:33N 35°30' E 139°45'0 0.0
2014-Aug-22 08:32N 35°30' E 139°45'0 0.0
2014-Aug-22 07:32N 35°30' E 139°45'0 0.0
2014-Aug-22 06:32N 35°30' E 139°45'0 0.0
2014-Aug-22 05:32N 35°30' E 139°45'0 0.1
2014-Aug-22 04:33N 35°30' E 139°45'6 6.5
2014-Aug-22 03:33N 35°24' E 139°42'3 2.7
2014-Aug-22 02:31N 35°23' E 139°39'0 0.0
2014-Aug-22 01:31N 35°23' E 139°39'0 0.0
2014-Aug-22 00:31N 35°23' E 139°39'0 0.0
2014-Aug-21 23:31N 35°23' E 139°39'0 0.0
2014-Aug-21 22:31N 35°23' E 139°39'0 0.0
2014-Aug-21 21:31N 35°23' E 139°39'5 5.0
2014-Aug-21 20:33N 35°20' E 139°43'1313.2
2014-Aug-21 19:33N 35°07' E 139°46'1818.4
2014-Aug-21 18:33N 34°51' E 139°35'2418.1
2014-Aug-21 17:15N 34°34' E 139°15'3718.9
2014-Aug-21 15:19N 34°27' E 138°32'  
Track history (hours):
 
Tides and Currents Weather Stations Pressure Air Temp Water Temp Dewpoint Dewpoint Depression Visibility Wind Speed Wind Dir Waves Ship Positions

Toyofujimaru No.2

Last reported at 2014-Aug-22 17:33 UTC. Time now 2014-Aug-23 09:28 UTC.
Position N 36°03' E 141°01'.

Length 165 m; draft 6.5 m.

Type: Cargo ship. MMSI: 432667000.

Date/timePositionNaut miles runAvg speedWind from/ knotsBaromVisibWave heightAir tempDewpointWater temp
2014-Aug-22 17:33N 36°03' E 141°01'2120.1
2014-Aug-22 16:31N 35°42' E 140°58'2020.3
2014-Aug-22 15:33N 35°26' E 140°44'2120.5
2014-Aug-22 14:33N 35°10' E 140°29'2121.6
2014-Aug-22 13:33N 34°57' E 140°08'2019.9
2014-Aug-22 12:33N 34°52' E 139°45'1918.6
2014-Aug-22 11:34N 35°10' E 139°45'1211.7
2014-Aug-22 10:34N 35°22' E 139°42'9 9.0
2014-Aug-22 09:33N 35°30' E 139°45'0 0.0
2014-Aug-22 08:32N 35°30' E 139°45'0 0.0
2014-Aug-22 07:32N 35°30' E 139°45'0 0.0
2014-Aug-22 06:32N 35°30' E 139°45'0 0.0
2014-Aug-22 05:32N 35°30' E 139°45'0 0.1
2014-Aug-22 04:33N 35°30' E 139°45'6 6.5
2014-Aug-22 03:33N 35°24' E 139°42'3 2.7
2014-Aug-22 02:31N 35°23' E 139°39'0 0.0
2014-Aug-22 01:31N 35°23' E 139°39'0 0.0
2014-Aug-22 00:31N 35°23' E 139°39'0 0.0
2014-Aug-21 23:31N 35°23' E 139°39'0 0.0
2014-Aug-21 22:31N 35°23' E 139°39'0 0.0
2014-Aug-21 21:31N 35°23' E 139°39'5 5.0
2014-Aug-21 20:33N 35°20' E 139°43'1313.2
2014-Aug-21 19:33N 35°07' E 139°46'1818.4
2014-Aug-21 18:33N 34°51' E 139°35'2418.1
2014-Aug-21 17:15N 34°34' E 139°15'3718.9
2014-Aug-21 15:19N 34°27' E 138°32'  

Dump ship's entire track history